Aurora, Nevada
Current Conditions -  °F | °C
As of 5:15 PM on Monday 20 Oct 2014 (Local Time) from KMEV Reporting Station
Clear Clear  
Wind Chill: 66°   Ceiling: Unl
Heat Index: 66°   Visibility: 10mi
Dew Point: 28°   Wind: 21mph
Humidity: 24%   Direction: 180°S
Pressure: 29.89"   Gusts: 30mph
Location:  38.7596°N, 119.34°W
Report Text: KMEV 210015Z AUTO 18018G26KT 10SM CLR 19/M02 A2989 RMK AO2
Loading
Personal Weather Stations






























Interactive Weather Map
Tropical Storm Tracking
New forecast layout! Learn more

10-Day Weather Forecast

Advertisements
Track Severe Weather on mobile